Acme, Michigan
Current Conditions -  °F | °C
As of 4:11 AM on Friday 31 Oct 2014 (Local Time) from KTVC Reporting Station
Light Rain Light Rain  
Wind Chill: 41°   Ceiling: 3500
Heat Index: 41°   Visibility: 10mi
Dew Point: 38°   Wind: 3mph
Humidity: 89%   Direction: 230°SW
Pressure: 29.9"   Gusts: NA
Location:  44.77°N, 85.5°W
Report Text: KTVC 310811Z 23003KT 10SM -RA SCT019 BKN035 OVC075 05/03 A2990 RMK AO2 P0000 T00500033
Loading
Personal Weather Stations






























Interactive Weather Map New forecast layout! Learn more

10-Day Weather Forecast

Advertisements
Track Severe Weather on mobile